createdAt,value
2023-01-06T00:00:42.537Z,27.42
2023-01-06T00:03:09.911Z,24.42
2023-01-06T00:05:36.461Z,24.50
2023-01-06T00:08:03.298Z,23.50
2023-01-06T00:10:30.094Z,25.63
2023-01-06T00:12:56.689Z,21.13
2023-01-06T00:15:23.286Z,22.98
2023-01-06T00:17:49.860Z,20.35
2023-01-06T00:20:16.509Z,19.25
2023-01-06T00:22:43.344Z,24.10
2023-01-06T00:25:11.494Z,23.40
2023-01-06T00:27:39.245Z,19.95
2023-01-06T00:30:07.493Z,19.75
2023-01-06T00:32:34.563Z,17.77
2023-01-06T00:35:01.268Z,16.20
2023-01-06T00:37:27.913Z,18.60
2023-01-06T00:39:54.527Z,22.67
2023-01-06T00:42:22.498Z,20.00
2023-01-06T00:44:49.695Z,17.15
2023-01-06T00:47:17.119Z,14.48
2023-01-06T00:49:43.817Z,16.67
2023-01-06T00:52:10.946Z,15.65
2023-01-06T00:54:37.687Z,13.80
2023-01-06T00:57:06.832Z,11.75
2023-01-06T00:59:34.088Z,12.13
2023-01-06T01:02:02.780Z,12.23
2023-01-06T01:04:30.625Z,11.32
2023-01-06T01:06:57.328Z,13.80
2023-01-06T01:09:28.141Z,11.10
2023-01-06T01:12:09.905Z,12.57
2023-01-06T01:14:42.244Z,12.68
2023-01-06T01:17:10.455Z,12.55
2023-01-06T01:19:38.128Z,17.55
2023-01-06T01:22:05.176Z,13.35
2023-01-06T01:24:31.860Z,17.58
2023-01-06T01:26:59.399Z,13.77
2023-01-06T01:29:26.299Z,15.85
2023-01-06T01:31:52.944Z,19.13
2023-01-06T01:34:19.878Z,18.60
2023-01-06T01:36:48.071Z,18.40
2023-01-06T01:39:16.661Z,17.95
2023-01-06T01:41:43.951Z,21.70
2023-01-06T01:44:48.230Z,22.52
2023-01-06T01:47:20.910Z,22.20
2023-01-06T01:49:52.216Z,28.15
2023-01-06T01:52:20.133Z,23.92
2023-01-06T01:54:48.887Z,22.85
2023-01-06T01:57:45.455Z,25.57
2023-01-06T02:00:12.478Z,22.50
2023-01-06T02:02:42.911Z,23.35
2023-01-06T02:05:14.015Z,18.85
2023-01-06T02:07:41.085Z,21.63
2023-01-06T02:10:19.945Z,21.65
2023-01-06T02:12:49.311Z,23.15
2023-01-06T02:15:16.172Z,20.25
2023-01-06T02:17:58.019Z,19.58
2023-01-06T02:20:43.389Z,16.17
2023-01-06T02:23:24.196Z,16.35
2023-01-06T02:26:06.619Z,15.43
2023-01-06T02:28:42.195Z,16.17
2023-01-06T02:31:24.098Z,14.43
2023-01-06T02:33:56.366Z,14.45
2023-01-06T02:36:45.017Z,11.73
2023-01-06T02:39:25.709Z,12.02
2023-01-06T02:42:04.125Z,10.93
2023-01-06T02:44:38.485Z,12.57
2023-01-06T02:47:15.259Z,9.70
2023-01-06T02:50:02.679Z,10.50
2023-01-06T02:52:41.564Z,8.30
2023-01-06T02:55:21.784Z,9.90
2023-01-06T02:57:59.514Z,10.65
2023-01-06T03:00:46.348Z,10.15
2023-01-06T03:03:20.432Z,9.93
2023-01-06T03:05:52.047Z,8.27
2023-01-06T03:08:23.464Z,10.05
2023-01-06T03:10:51.983Z,10.75
2023-01-06T03:13:28.608Z,7.63
2023-01-06T03:15:57.864Z,9.93
2023-01-06T03:18:24.730Z,7.15
2023-01-06T03:20:54.717Z,17.00
2023-01-06T03:23:22.266Z,5.55
2023-01-06T03:25:49.457Z,9.05
2023-01-06T03:28:16.131Z,12.27
2023-01-06T03:31:05.926Z,8.25
2023-01-06T03:33:42.359Z,6.00
2023-01-06T03:36:36.477Z,7.50
2023-01-06T03:39:19.561Z,5.97
2023-01-06T03:42:31.463Z,7.55
2023-01-06T03:45:07.549Z,8.32
2023-01-06T03:47:49.700Z,6.63
2023-01-06T03:51:03.940Z,5.15
2023-01-06T03:53:59.284Z,7.95
2023-01-06T03:56:31.882Z,5.97
2023-01-06T03:59:05.634Z,7.28
2023-01-06T04:01:33.253Z,7.55
2023-01-06T04:04:01.664Z,10.27
2023-01-06T04:06:29.458Z,7.90
2023-01-06T04:08:56.075Z,7.47
2023-01-06T04:11:41.976Z,5.60
2023-01-06T04:14:09.565Z,8.27
2023-01-06T04:16:37.179Z,3.28
2023-01-06T04:19:03.838Z,4.35
2023-01-06T04:21:30.499Z,5.47
2023-01-06T04:23:57.299Z,5.43
2023-01-06T04:26:23.966Z,6.80
2023-01-06T04:28:51.012Z,3.25
2023-01-06T04:31:18.554Z,6.95
2023-01-06T04:33:46.463Z,7.57
2023-01-06T04:36:15.401Z,4.25
2023-01-06T04:38:47.034Z,4.82
2023-01-06T04:41:13.676Z,4.63
2023-01-06T04:43:40.231Z,3.75
2023-01-06T04:46:07.114Z,6.03
2023-01-06T04:48:33.755Z,3.65
2023-01-06T04:51:04.887Z,4.90
2023-01-06T04:53:40.583Z,6.85
2023-01-06T04:56:10.137Z,4.75
2023-01-06T05:01:09.168Z,6.25
2023-01-06T05:03:36.275Z,5.20
2023-01-06T05:06:11.589Z,5.78
2023-01-06T05:08:40.006Z,4.68
2023-01-06T05:11:12.116Z,6.43
2023-01-06T05:13:39.462Z,5.60
2023-01-06T05:16:08.112Z,6.15
2023-01-06T05:18:35.567Z,8.40
2023-01-06T05:21:02.581Z,5.55
2023-01-06T05:23:29.366Z,3.25
2023-01-06T05:25:55.982Z,4.10
2023-01-06T05:28:22.765Z,6.38
2023-01-06T05:30:49.595Z,9.13
2023-01-06T05:33:16.455Z,6.63
2023-01-06T05:35:43.029Z,7.25
2023-01-06T05:38:09.608Z,6.22
2023-01-06T05:40:36.331Z,4.10
2023-01-06T05:43:03.003Z,5.55
2023-01-06T05:45:29.943Z,4.18
2023-01-06T05:47:57.879Z,3.97
2023-01-06T05:50:24.486Z,5.97
2023-01-06T05:52:51.044Z,5.32
2023-01-06T05:55:17.737Z,2.88
2023-01-06T05:57:44.292Z,3.47
2023-01-06T06:00:11.631Z,5.75
2023-01-06T06:02:41.061Z,4.30
2023-01-06T06:05:09.303Z,6.05
2023-01-06T06:07:37.019Z,3.37
2023-01-06T06:10:04.789Z,4.40
2023-01-06T06:12:31.578Z,7.63
2023-01-06T06:14:58.179Z,4.20
2023-01-06T06:17:25.293Z,2.78
2023-01-06T06:19:51.911Z,5.80
2023-01-06T06:22:18.811Z,6.75
2023-01-06T06:24:45.345Z,6.93
2023-01-06T06:27:11.960Z,5.30
2023-01-06T06:29:38.534Z,3.95
2023-01-06T06:32:05.220Z,5.88
2023-01-06T06:34:32.000Z,2.15
2023-01-06T06:36:58.589Z,3.10
2023-01-06T06:39:25.188Z,6.07
2023-01-06T06:41:51.868Z,4.85
2023-01-06T06:44:18.373Z,7.68
2023-01-06T06:46:44.933Z,5.18
2023-01-06T06:49:11.601Z,5.93
2023-01-06T06:51:38.216Z,3.35
2023-01-06T06:54:05.021Z,6.55
2023-01-06T06:56:31.786Z,3.33
2023-01-06T06:58:58.428Z,2.72
2023-01-06T07:01:25.236Z,3.40
2023-01-06T07:03:51.851Z,4.72
2023-01-06T07:06:22.840Z,5.72
2023-01-06T07:08:50.068Z,4.30
2023-01-06T07:11:17.435Z,3.70
2023-01-06T07:13:44.186Z,5.65
2023-01-06T07:16:11.411Z,3.63
2023-01-06T07:18:38.976Z,3.42
2023-01-06T07:21:06.375Z,4.90
2023-01-06T07:23:33.365Z,9.48
2023-01-06T07:26:01.633Z,3.83
2023-01-06T07:28:30.483Z,7.30
2023-01-06T07:30:57.145Z,2.80
2023-01-06T07:33:24.111Z,3.20
2023-01-06T07:35:55.092Z,6.80
2023-01-06T07:38:21.810Z,5.80
2023-01-06T07:40:48.434Z,4.93
2023-01-06T07:43:15.067Z,4.30
2023-01-06T07:45:41.545Z,3.35
2023-01-06T07:48:09.644Z,2.08
2023-01-06T07:50:36.168Z,6.60
2023-01-06T07:53:04.024Z,3.90
2023-01-06T07:55:30.694Z,6.00
2023-01-06T07:57:58.952Z,3.88
2023-01-06T08:00:26.006Z,2.70
2023-01-06T08:02:52.859Z,3.83
2023-01-06T08:05:19.430Z,6.32
2023-01-06T08:07:46.105Z,8.57
2023-01-06T08:10:13.015Z,2.95
2023-01-06T08:12:39.666Z,4.30
2023-01-06T08:15:06.810Z,2.97
2023-01-06T08:17:33.401Z,5.32
2023-01-06T08:20:00.099Z,3.38
2023-01-06T08:22:26.690Z,6.45
2023-01-06T08:24:53.500Z,3.85
2023-01-06T08:27:20.658Z,3.17
2023-01-06T08:29:47.918Z,1.40
2023-01-06T08:32:14.577Z,3.65
2023-01-06T08:34:41.249Z,3.95
2023-01-06T08:37:07.790Z,2.75
2023-01-06T08:39:34.371Z,3.30
2023-01-06T08:42:00.874Z,1.25
2023-01-06T08:44:28.086Z,3.42
2023-01-06T08:46:54.627Z,4.53
2023-01-06T08:49:21.303Z,1.55
2023-01-06T08:51:47.942Z,2.10
2023-01-06T08:54:14.612Z,5.38
2023-01-06T08:56:43.515Z,5.05
2023-01-06T08:59:13.720Z,2.75
2023-01-06T09:01:40.897Z,3.42
2023-01-06T09:04:08.812Z,3.67
2023-01-06T09:06:37.268Z,1.90
2023-01-06T09:09:06.843Z,3.97
2023-01-06T09:14:00.126Z,4.03
2023-01-06T09:16:26.849Z,2.67
2023-01-06T09:18:53.412Z,5.95
2023-01-06T09:21:22.512Z,2.05
2023-01-06T09:23:49.608Z,4.57
2023-01-06T09:26:18.220Z,2.53
2023-01-06T09:28:45.061Z,2.93
2023-01-06T09:31:11.872Z,2.40
2023-01-06T09:33:40.148Z,3.20
2023-01-06T09:36:07.015Z,3.67
2023-01-06T09:38:33.643Z,1.55
2023-01-06T09:41:30.953Z,1.85
2023-01-06T09:44:11.075Z,5.10
2023-01-06T09:46:40.851Z,7.35
2023-01-06T09:49:24.546Z,3.10
2023-01-06T09:51:56.533Z,3.22
2023-01-06T09:54:27.784Z,2.88
2023-01-06T09:57:02.715Z,3.38
2023-01-06T10:00:00.301Z,4.03
2023-01-06T10:02:36.061Z,4.18
2023-01-06T10:05:04.757Z,7.63
2023-01-06T10:07:46.500Z,5.10
2023-01-06T10:10:16.176Z,2.33
2023-01-06T10:12:54.158Z,6.28
2023-01-06T10:15:41.587Z,5.03
2023-01-06T10:18:32.823Z,2.88
2023-01-06T10:21:13.079Z,2.83
2023-01-06T10:23:39.701Z,3.97
2023-01-06T10:26:30.372Z,2.63
2023-01-06T10:29:09.968Z,4.90
2023-01-06T10:34:19.999Z,3.92
2023-01-06T10:36:52.783Z,4.70
2023-01-06T10:39:26.228Z,6.10
2023-01-06T10:41:53.501Z,3.72
2023-01-06T10:44:20.506Z,6.93
2023-01-06T10:46:49.482Z,4.32
2023-01-06T10:49:18.862Z,6.10
2023-01-06T10:52:03.329Z,4.75
2023-01-06T10:54:34.056Z,5.47
2023-01-06T10:57:04.414Z,4.88
2023-01-06T10:59:31.206Z,3.78
2023-01-06T11:01:58.995Z,4.95
2023-01-06T11:04:27.797Z,4.70
2023-01-06T11:06:57.911Z,8.38
2023-01-06T11:09:36.569Z,6.80
2023-01-06T11:12:11.980Z,5.67
2023-01-06T11:14:39.916Z,4.90
2023-01-06T11:17:14.533Z,4.93
2023-01-06T11:19:43.576Z,5.55
2023-01-06T11:22:35.031Z,7.30
2023-01-06T11:25:02.636Z,4.97
2023-01-06T11:27:29.395Z,4.45
2023-01-06T11:29:56.356Z,4.78
2023-01-06T11:32:29.349Z,3.58
2023-01-06T11:35:03.702Z,4.57
2023-01-06T11:37:35.824Z,3.50
2023-01-06T11:40:16.320Z,9.63
2023-01-06T11:42:43.440Z,3.15
2023-01-06T11:45:29.148Z,3.38
2023-01-06T11:47:56.417Z,4.22
2023-01-06T11:50:23.579Z,3.55
2023-01-06T11:53:18.026Z,5.15
2023-01-06T11:56:18.532Z,4.43
2023-01-06T11:59:04.495Z,5.18
2023-01-06T12:01:48.061Z,4.72
2023-01-06T12:04:34.920Z,3.33
2023-01-06T12:07:24.067Z,3.85
2023-01-06T12:09:52.974Z,3.85
2023-01-06T12:12:27.287Z,5.13
2023-01-06T12:14:54.809Z,4.80
2023-01-06T12:17:27.499Z,3.00
2023-01-06T12:20:02.140Z,4.45
2023-01-06T12:22:28.745Z,2.47
2023-01-06T12:24:57.419Z,5.43
2023-01-06T12:27:39.383Z,3.07
2023-01-06T12:30:14.064Z,3.58
2023-01-06T12:32:45.138Z,4.10
2023-01-06T12:35:19.014Z,4.22
2023-01-06T12:37:55.182Z,5.32
2023-01-06T12:40:39.617Z,2.47
2023-01-06T12:43:37.490Z,5.60
2023-01-06T12:46:29.290Z,4.20
2023-01-06T12:49:21.772Z,3.28
2023-01-06T12:51:57.750Z,2.72
2023-01-06T12:54:30.235Z,3.42
2023-01-06T12:57:12.745Z,5.53
2023-01-06T13:00:01.550Z,4.30
2023-01-06T13:02:31.203Z,4.90
2023-01-06T13:07:31.335Z,4.18
2023-01-06T13:10:19.161Z,4.95
2023-01-06T13:12:55.930Z,4.28
2023-01-06T13:15:29.122Z,4.85
2023-01-06T13:18:15.475Z,3.60
2023-01-06T13:20:49.852Z,6.32
2023-01-06T13:23:38.832Z,3.22
2023-01-06T13:26:24.101Z,4.72
2023-01-06T13:29:09.894Z,8.02
2023-01-06T13:32:19.135Z,4.00
2023-01-06T13:35:13.566Z,5.30
2023-01-06T13:37:42.318Z,3.33
2023-01-06T13:40:16.447Z,3.93
2023-01-06T13:43:23.520Z,3.80
2023-01-06T13:45:58.281Z,7.75
2023-01-06T13:48:29.676Z,4.25
2023-01-06T13:50:59.536Z,3.30
2023-01-06T13:53:27.330Z,5.20
2023-01-06T13:56:12.041Z,4.25
2023-01-06T13:58:43.296Z,3.58
2023-01-06T14:01:30.512Z,4.20
2023-01-06T14:04:32.469Z,4.88
2023-01-06T14:07:00.440Z,4.63
2023-01-06T14:09:28.072Z,4.13
2023-01-06T14:12:08.400Z,4.10
2023-01-06T14:14:38.928Z,4.63
2023-01-06T14:17:05.872Z,4.13
2023-01-06T14:19:40.074Z,5.05
2023-01-06T14:22:21.304Z,4.22
2023-01-06T14:24:52.511Z,7.00
2023-01-06T14:27:46.868Z,2.78
2023-01-06T14:30:30.548Z,5.18
2023-01-06T14:33:07.129Z,5.43
2023-01-06T14:35:44.672Z,4.38
2023-01-06T14:38:24.307Z,5.82
2023-01-06T14:41:04.188Z,4.18
2023-01-06T14:43:37.792Z,5.60
2023-01-06T14:46:09.032Z,5.47
2023-01-06T14:48:42.324Z,7.93
2023-01-06T14:51:15.512Z,9.18
2023-01-06T14:53:47.115Z,7.85
2023-01-06T14:56:22.153Z,5.55
2023-01-06T14:58:48.809Z,6.00
2023-01-06T15:01:25.081Z,8.23
2023-01-06T15:04:01.357Z,7.50
2023-01-06T15:06:29.726Z,6.15
2023-01-06T15:09:11.625Z,8.40
2023-01-06T15:11:41.863Z,9.02
2023-01-06T15:14:30.096Z,8.20
2023-01-06T15:17:01.169Z,8.30
2023-01-06T15:19:28.324Z,7.88
2023-01-06T15:21:55.156Z,6.53
2023-01-06T15:24:28.611Z,11.18
2023-01-06T15:27:02.513Z,6.10
2023-01-06T15:29:29.192Z,9.45
2023-01-06T15:31:56.840Z,8.15
2023-01-06T15:34:32.678Z,8.70
2023-01-06T15:37:01.950Z,7.10
2023-01-06T15:39:30.973Z,7.45
2023-01-06T15:41:59.299Z,10.98
2023-01-06T15:44:37.846Z,9.45
2023-01-06T15:47:10.610Z,8.68
2023-01-06T15:49:42.438Z,8.60
2023-01-06T15:52:23.244Z,8.15
2023-01-06T15:54:51.639Z,11.02
2023-01-06T15:57:18.334Z,7.30
2023-01-06T15:59:57.475Z,7.22
2023-01-06T16:02:28.751Z,9.02
2023-01-06T16:04:55.793Z,7.70
2023-01-06T16:07:41.815Z,6.00
2023-01-06T16:10:31.989Z,7.35
2023-01-06T16:13:17.898Z,7.65
2023-01-06T16:15:55.727Z,9.32
2023-01-06T16:18:34.300Z,6.63
2023-01-06T16:21:28.843Z,9.85
2023-01-06T16:24:01.453Z,9.60
2023-01-06T16:26:31.605Z,7.30
2023-01-06T16:29:01.386Z,7.35
2023-01-06T16:31:39.659Z,7.60
2023-01-06T16:34:25.128Z,7.43
2023-01-06T16:36:55.655Z,6.93
2023-01-06T16:39:22.403Z,6.75
2023-01-06T16:41:58.248Z,13.10
2023-01-06T16:44:30.052Z,6.75
2023-01-06T16:46:57.544Z,6.05
2023-01-06T16:49:24.257Z,6.28
2023-01-06T16:51:51.258Z,7.13
2023-01-06T16:54:18.709Z,9.48
2023-01-06T16:56:46.671Z,7.90
2023-01-06T16:59:15.435Z,10.77
2023-01-06T17:01:44.125Z,12.23
2023-01-06T17:04:12.806Z,15.05
2023-01-06T17:06:40.747Z,15.20
2023-01-06T17:09:25.928Z,15.23
2023-01-06T17:11:52.948Z,22.42
2023-01-06T17:14:22.378Z,19.05
2023-01-06T17:16:50.684Z,22.42
2023-01-06T17:19:28.728Z,15.25
2023-01-06T17:22:02.733Z,13.82
2023-01-06T17:24:31.273Z,9.10
2023-01-06T17:27:20.343Z,10.77
2023-01-06T17:29:47.672Z,11.75
2023-01-06T17:32:19.861Z,9.18
2023-01-06T17:34:46.785Z,10.35
2023-01-06T17:37:19.310Z,7.68
2023-01-06T17:39:47.336Z,8.63
2023-01-06T17:42:13.855Z,8.35
2023-01-06T17:44:43.427Z,11.88
2023-01-06T17:49:48.495Z,8.00
2023-01-06T17:52:18.350Z,7.28
2023-01-06T17:55:16.057Z,8.88
2023-01-06T17:57:44.551Z,7.07
2023-01-06T18:00:34.016Z,7.80
2023-01-06T18:03:03.877Z,8.63
2023-01-06T18:05:33.415Z,10.73
2023-01-06T18:10:39.413Z,8.85
2023-01-06T18:13:44.044Z,11.15
2023-01-06T18:16:30.676Z,13.95
2023-01-06T18:19:18.747Z,11.57
2023-01-06T18:21:46.385Z,12.05
2023-01-06T18:24:22.595Z,10.38
2023-01-06T18:26:53.722Z,19.58
2023-01-06T18:29:29.500Z,15.88
2023-01-06T18:31:56.494Z,10.77
2023-01-06T18:34:30.988Z,12.07
2023-01-06T18:36:59.617Z,13.23
2023-01-06T18:39:39.873Z,9.40
2023-01-06T18:42:51.203Z,10.45
2023-01-06T18:45:28.411Z,11.00
2023-01-06T18:48:18.306Z,11.55
2023-01-06T18:50:48.543Z,12.70
2023-01-06T18:53:15.115Z,13.70
2023-01-06T18:55:42.970Z,13.07
2023-01-06T18:58:12.650Z,12.57
2023-01-06T19:03:14.516Z,15.85
2023-01-06T19:08:34.715Z,17.88
2023-01-06T19:11:03.599Z,16.30
2023-01-06T19:13:30.397Z,23.15
2023-01-06T19:16:02.473Z,18.73
2023-01-06T19:18:33.588Z,14.00
2023-01-06T19:21:03.402Z,13.35
2023-01-06T19:23:32.059Z,14.85
2023-01-06T19:26:13.844Z,16.93
2023-01-06T19:28:40.434Z,18.10
2023-01-06T19:31:22.069Z,13.75
2023-01-06T19:34:00.802Z,14.30
2023-01-06T19:36:41.021Z,13.43
2023-01-06T19:39:36.951Z,13.30
2023-01-06T19:42:22.133Z,13.80
2023-01-06T19:44:53.915Z,15.77
2023-01-06T19:47:39.051Z,16.13
2023-01-06T19:50:25.454Z,17.42
2023-01-06T19:52:59.987Z,19.15
2023-01-06T19:55:31.026Z,18.48
2023-01-06T19:58:04.680Z,22.77
2023-01-06T20:01:01.068Z,22.27
2023-01-06T20:03:37.373Z,19.52
2023-01-06T20:06:04.563Z,21.27
2023-01-06T20:08:31.108Z,18.48
2023-01-06T20:10:57.683Z,18.95
2023-01-06T20:13:24.254Z,21.38
2023-01-06T20:15:50.925Z,17.15
2023-01-06T20:18:17.598Z,18.38
2023-01-06T20:20:44.328Z,16.02
2023-01-06T20:23:11.297Z,16.25
2023-01-06T20:25:37.973Z,19.25
2023-01-06T20:28:04.856Z,16.30
2023-01-06T20:30:31.446Z,17.27
2023-01-06T20:32:58.091Z,16.58
2023-01-06T20:35:24.706Z,15.85
2023-01-06T20:37:51.340Z,17.23
2023-01-06T20:40:18.415Z,20.48
2023-01-06T20:42:45.509Z,17.27
2023-01-06T20:45:12.957Z,21.80
2023-01-06T20:47:39.843Z,19.15
2023-01-06T20:50:07.449Z,18.90
2023-01-06T20:52:34.764Z,17.35
2023-01-06T20:55:01.455Z,19.35
2023-01-06T20:57:28.069Z,16.77
2023-01-06T20:59:54.626Z,18.65
2023-01-06T21:02:21.427Z,17.35
2023-01-06T21:04:48.066Z,16.67
2023-01-06T21:07:14.707Z,16.58
2023-01-06T21:09:41.257Z,17.25
2023-01-06T21:12:07.920Z,16.23
2023-01-06T21:14:35.334Z,14.77
2023-01-06T21:17:03.728Z,16.30
2023-01-06T21:19:30.570Z,16.83
2023-01-06T21:21:57.484Z,17.65
2023-01-06T21:24:25.248Z,18.38
2023-01-06T21:26:51.837Z,21.25
2023-01-06T21:29:18.373Z,20.25
2023-01-06T21:31:45.049Z,19.00
2023-01-06T21:34:11.610Z,20.02
2023-01-06T21:36:38.222Z,17.50
2023-01-06T21:39:07.630Z,17.10
2023-01-06T21:41:52.829Z,18.40
2023-01-06T21:44:20.824Z,19.08
2023-01-06T21:46:47.394Z,19.02
2023-01-06T21:49:13.951Z,18.77
2023-01-06T21:51:40.990Z,17.17
2023-01-06T21:54:07.650Z,19.65
2023-01-06T21:56:35.643Z,18.17
2023-01-06T21:59:04.817Z,19.30
2023-01-06T22:01:31.604Z,23.05
2023-01-06T22:03:58.318Z,21.27
2023-01-06T22:06:25.572Z,17.92
2023-01-06T22:08:53.834Z,19.80
2023-01-06T22:11:20.527Z,20.58
2023-01-06T22:13:47.536Z,22.05
2023-01-06T22:16:14.258Z,19.92
2023-01-06T22:18:40.931Z,18.42
2023-01-06T22:21:07.805Z,21.52
2023-01-06T22:23:36.803Z,18.42
2023-01-06T22:26:03.835Z,19.33
2023-01-06T22:28:30.526Z,19.02
2023-01-06T22:30:57.976Z,17.55
2023-01-06T22:33:24.840Z,19.20
2023-01-06T22:35:51.483Z,17.05
2023-01-06T22:38:18.075Z,17.95
2023-01-06T22:40:46.421Z,17.80
2023-01-06T22:43:12.971Z,17.50
2023-01-06T22:45:39.639Z,19.42
2023-01-06T22:48:06.414Z,17.23
2023-01-06T22:50:32.958Z,16.25
2023-01-06T22:52:59.674Z,16.55
2023-01-06T22:55:26.293Z,17.73
2023-01-06T22:57:52.940Z,16.35
2023-01-06T23:00:19.658Z,16.40
2023-01-06T23:02:46.651Z,15.02
2023-01-06T23:05:13.333Z,14.13
2023-01-06T23:07:42.566Z,12.70
2023-01-06T23:10:12.311Z,12.35
2023-01-06T23:12:40.954Z,12.70
2023-01-06T23:15:08.731Z,11.60
2023-01-06T23:17:36.882Z,12.57
2023-01-06T23:20:04.413Z,11.50
2023-01-06T23:22:31.032Z,12.02
2023-01-06T23:24:57.669Z,12.55
2023-01-06T23:27:24.250Z,11.88
2023-01-06T23:29:50.795Z,10.77
2023-01-06T23:32:17.332Z,11.73
2023-01-06T23:34:43.885Z,11.57
2023-01-06T23:37:10.503Z,11.35
2023-01-06T23:39:37.151Z,10.95
2023-01-06T23:42:05.454Z,10.57
2023-01-06T23:44:32.137Z,10.38
2023-01-06T23:46:58.748Z,10.40
2023-01-06T23:49:25.297Z,13.00
2023-01-06T23:51:52.128Z,11.82
2023-01-06T23:54:18.795Z,11.07
2023-01-06T23:56:45.373Z,10.93
2023-01-06T23:59:12.751Z,10.60
